Terminal Aerodrome Forecast
Issued by NWS

Home | Current Version | Previous Version | Text Only | Print | Product List | Glossary On
Versions: 1 2 3 4 5 6 7 8 9 10 11 12 13 14 15 16 17 18 19 20 21 22 23 24 25 26 27 28 29 30 31 32 33 34 35 36 37 38
000
FTUS41 KRNK 191122
TAFLWB
TAF
KLWB 191122Z 1912/2012 00000KT 2SM BR SCT001 OVC014
      TEMPO 1912/1914 1/4SM FG OVC001
     FM191600 23005KT P6SM VCSH BKN040
     FM191800 24007KT P6SM VCTS SCT012 BKN050CB
      TEMPO 1921/1923 5SM TSRA BR OVC012CB
     FM200000 00000KT P6SM BKN070
     FM200600 00000KT 1/2SM FG OVC001=

USA.gov is the U.S. government's official web portal to all federal, state and local government web resources and services.